createdAt,value
2017-12-13T00:00:29.376Z,1008.29
2017-12-13T00:01:29.343Z,1008.40
2017-12-13T00:02:29.308Z,1008.32
2017-12-13T00:03:29.278Z,1008.41
2017-12-13T00:04:29.253Z,1008.37
2017-12-13T00:05:29.218Z,1008.13
2017-12-13T00:06:29.186Z,1008.12
2017-12-13T00:07:29.148Z,1008.34
2017-12-13T00:08:29.122Z,1008.04
2017-12-13T00:09:29.090Z,1008.56
2017-12-13T00:10:29.050Z,1008.20
2017-12-13T00:11:29.020Z,1008.46
2017-12-13T00:12:28.979Z,1008.42
2017-12-13T00:13:28.952Z,1008.63
2017-12-13T00:14:28.937Z,1008.39
2017-12-13T00:15:28.908Z,1008.50
2017-12-13T00:16:28.861Z,1008.51
2017-12-13T00:17:28.820Z,1008.43
2017-12-13T00:18:28.793Z,1008.81
2017-12-13T00:19:28.771Z,1008.32
2017-12-13T00:20:29.031Z,1008.47
2017-12-13T00:21:28.695Z,1008.28
2017-12-13T00:22:28.672Z,1008.55
2017-12-13T00:23:28.654Z,1008.44
2017-12-13T00:24:28.591Z,1008.22
2017-12-13T00:25:28.564Z,1008.47
2017-12-13T00:26:28.534Z,1008.47
2017-12-13T00:27:28.499Z,1008.44
2017-12-13T00:28:28.468Z,1008.32
2017-12-13T00:29:28.426Z,1008.51
2017-12-13T00:30:28.400Z,1008.33
2017-12-13T00:31:28.372Z,1008.46
2017-12-13T00:32:28.335Z,1008.35
2017-12-13T00:33:28.302Z,1008.44
2017-12-13T00:34:28.267Z,1008.38
2017-12-13T00:35:28.292Z,1008.07
2017-12-13T00:36:28.222Z,1008.45
2017-12-13T00:37:28.176Z,1008.44
2017-12-13T00:38:28.144Z,1008.49
2017-12-13T00:39:28.100Z,1008.22
2017-12-13T00:40:28.079Z,1008.39
2017-12-13T00:41:28.049Z,1008.43
2017-12-13T00:42:28.009Z,1008.25
2017-12-13T00:43:27.981Z,1008.51
2017-12-13T00:44:27.942Z,1008.42
2017-12-13T00:45:27.907Z,1008.05
2017-12-13T00:46:27.878Z,1008.45
2017-12-13T00:47:27.856Z,1008.36
2017-12-13T00:48:27.814Z,1007.98
2017-12-13T00:49:27.781Z,1008.41
2017-12-13T00:50:27.742Z,1008.47
2017-12-13T00:51:27.714Z,1008.38
2017-12-13T00:52:27.684Z,1008.26
2017-12-13T00:53:27.651Z,1008.43
2017-12-13T00:54:27.624Z,1008.38
2017-12-13T00:55:27.589Z,1007.73
2017-12-13T00:56:27.548Z,1008.25
2017-12-13T00:57:27.523Z,1008.21
2017-12-13T00:58:27.488Z,1007.80
2017-12-13T00:59:27.463Z,1008.33
2017-12-13T01:00:27.426Z,1008.32
2017-12-13T01:01:27.395Z,1008.06
2017-12-13T01:02:27.659Z,1008.07
2017-12-13T01:03:27.327Z,1008.05
2017-12-13T01:04:27.297Z,1008.46
2017-12-13T01:05:27.263Z,1008.17
2017-12-13T01:06:27.231Z,1007.86
2017-12-13T01:07:27.188Z,1008.15
2017-12-13T01:08:27.161Z,1007.55
2017-12-13T01:09:27.129Z,1007.77
2017-12-13T01:10:27.093Z,1008.27
2017-12-13T01:11:27.078Z,1008.06
2017-12-13T01:12:27.036Z,1007.99
2017-12-13T01:13:27.001Z,1008.55
2017-12-13T01:14:26.970Z,1008.43
2017-12-13T01:15:26.936Z,1008.43
2017-12-13T01:16:26.905Z,1007.95
2017-12-13T01:17:26.866Z,1008.48
2017-12-13T01:18:26.847Z,1008.63
2017-12-13T01:19:26.806Z,1008.42
2017-12-13T01:20:27.029Z,1007.93
2017-12-13T01:21:26.745Z,1008.37
2017-12-13T01:22:26.703Z,1008.59
2017-12-13T01:23:26.675Z,1008.62
2017-12-13T01:24:26.642Z,1008.73
2017-12-13T01:25:26.606Z,1008.72
2017-12-13T01:26:26.877Z,1008.41
2017-12-13T01:27:26.552Z,1008.66
2017-12-13T01:28:26.516Z,1008.70
2017-12-13T01:29:26.487Z,1008.58
2017-12-13T01:30:26.438Z,1008.63
2017-12-13T01:31:26.451Z,1008.23
2017-12-13T01:32:26.376Z,1008.35
2017-12-13T01:33:26.348Z,1008.48
2017-12-13T01:34:26.322Z,1008.66
2017-12-13T01:35:26.280Z,1008.33
2017-12-13T01:36:26.256Z,1008.86
2017-12-13T01:37:26.214Z,1008.79
2017-12-13T01:38:26.188Z,1008.80
2017-12-13T01:39:26.152Z,1008.12
2017-12-13T01:40:26.118Z,1008.65
2017-12-13T01:41:26.088Z,1008.75
2017-12-13T01:42:26.058Z,1008.69
2017-12-13T01:43:26.028Z,1008.37
2017-12-13T01:44:26.292Z,1008.22
2017-12-13T01:45:25.951Z,1008.69
2017-12-13T01:46:25.917Z,1008.60
2017-12-13T01:47:25.886Z,1008.61
2017-12-13T01:48:25.861Z,1008.53
2017-12-13T01:49:25.830Z,1008.52
2017-12-13T01:50:25.788Z,1007.87
2017-12-13T01:51:25.758Z,1008.73
2017-12-13T01:52:25.720Z,1008.59
2017-12-13T01:53:25.695Z,1008.79
2017-12-13T01:54:25.659Z,1008.37
2017-12-13T01:55:25.622Z,1008.56
2017-12-13T01:56:25.596Z,1008.67
2017-12-13T01:57:25.564Z,1008.67
2017-12-13T01:58:25.524Z,1008.27
2017-12-13T01:59:25.501Z,1008.50
2017-12-13T02:00:25.469Z,1008.53
2017-12-13T02:01:25.425Z,1008.09
2017-12-13T02:02:25.398Z,1008.55
2017-12-13T02:03:25.371Z,1008.75
2017-12-13T02:04:25.334Z,1008.69
2017-12-13T02:05:25.298Z,1008.53
2017-12-13T02:06:25.267Z,1008.62
2017-12-13T02:07:25.230Z,1008.46
2017-12-13T02:08:25.505Z,1008.50
2017-12-13T02:09:25.169Z,1008.64
2017-12-13T02:10:25.139Z,1008.59
2017-12-13T02:11:25.102Z,1008.11
2017-12-13T02:12:25.071Z,1008.13
2017-12-13T02:13:25.035Z,1008.57
2017-12-13T02:14:25.017Z,1008.52
2017-12-13T02:15:24.977Z,1008.40
2017-12-13T02:16:24.939Z,1008.61
2017-12-13T02:17:24.904Z,1008.55
2017-12-13T02:18:24.877Z,1008.49
2017-12-13T02:19:24.846Z,1008.30
2017-12-13T02:20:24.817Z,1008.59
2017-12-13T02:21:24.782Z,1008.21
2017-12-13T02:22:24.749Z,1008.19
2017-12-13T02:23:24.710Z,1008.10
2017-12-13T02:24:24.678Z,1008.07
2017-12-13T02:25:24.653Z,1008.10
2017-12-13T02:26:24.621Z,1007.96
2017-12-13T02:27:24.574Z,1007.96
2017-12-13T02:28:24.554Z,1008.01
2017-12-13T02:29:24.513Z,1007.91
2017-12-13T02:30:24.486Z,1007.85
2017-12-13T02:31:24.460Z,1007.77
2017-12-13T02:32:24.432Z,1007.98
2017-12-13T02:33:24.388Z,1007.89
2017-12-13T02:34:24.355Z,1007.89
2017-12-13T02:35:24.317Z,1007.95
2017-12-13T02:36:24.292Z,1007.82
2017-12-13T02:37:24.254Z,1007.88
2017-12-13T02:38:24.232Z,1007.86
2017-12-13T02:39:24.182Z,1007.77
2017-12-13T02:40:24.157Z,1007.87
2017-12-13T02:41:24.127Z,1007.85
2017-12-13T02:42:24.101Z,1007.80
2017-12-13T02:43:24.055Z,1007.75
2017-12-13T02:44:24.022Z,1007.86
2017-12-13T02:45:23.986Z,1007.70
2017-12-13T02:46:23.966Z,1007.68
2017-12-13T02:47:23.927Z,1007.74
2017-12-13T02:48:23.901Z,1007.77
2017-12-13T02:49:23.869Z,1007.63
2017-12-13T02:50:24.123Z,1007.79
2017-12-13T02:51:23.799Z,1007.53
2017-12-13T02:52:23.766Z,1007.56
2017-12-13T02:53:23.728Z,1007.68
2017-12-13T02:54:23.699Z,1007.55
2017-12-13T02:55:23.664Z,1007.43
2017-12-13T02:56:23.635Z,1007.48
2017-12-13T02:57:23.601Z,1007.56
2017-12-13T02:58:23.562Z,1007.43
2017-12-13T02:59:23.532Z,1007.33
2017-12-13T03:00:23.500Z,1007.45
2017-12-13T03:01:23.468Z,1007.46
2017-12-13T03:02:23.426Z,1007.43
2017-12-13T03:03:23.397Z,1007.43
2017-12-13T03:04:23.369Z,1007.21
2017-12-13T03:05:23.329Z,1007.40
2017-12-13T03:06:23.293Z,1007.28
2017-12-13T03:07:23.267Z,1007.32
2017-12-13T03:08:23.245Z,1007.32
2017-12-13T03:09:23.213Z,1007.37
2017-12-13T03:10:23.175Z,1007.34
2017-12-13T03:11:23.145Z,1007.25
2017-12-13T03:12:23.102Z,1007.27
2017-12-13T03:13:23.069Z,1007.21
2017-12-13T03:14:23.036Z,1007.24
2017-12-13T03:15:23.007Z,1007.34
2017-12-13T03:16:22.965Z,1007.16
2017-12-13T03:17:22.934Z,1007.20
2017-12-13T03:18:22.907Z,1007.19
2017-12-13T03:19:22.876Z,1007.24
2017-12-13T03:20:23.143Z,1007.28
2017-12-13T03:21:22.808Z,1007.28
2017-12-13T03:22:22.771Z,1007.26
2017-12-13T03:23:22.752Z,1007.19
2017-12-13T03:24:22.717Z,1007.14
2017-12-13T03:25:22.673Z,1007.06
2017-12-13T03:26:22.640Z,1006.99
2017-12-13T03:27:22.602Z,1007.13
2017-12-13T03:28:22.581Z,1006.84
2017-12-13T03:29:22.551Z,1006.99
2017-12-13T03:30:22.511Z,1007.05
2017-12-13T03:31:22.484Z,1006.99
2017-12-13T03:32:22.441Z,1006.97
2017-12-13T03:33:22.415Z,1006.97
2017-12-13T03:34:22.380Z,1006.93
2017-12-13T03:35:22.344Z,1006.96
2017-12-13T03:36:22.317Z,1006.82
2017-12-13T03:37:22.290Z,1006.81
2017-12-13T03:38:22.259Z,1006.77
2017-12-13T03:39:22.212Z,1006.83
2017-12-13T03:40:22.178Z,1006.88
2017-12-13T03:41:22.156Z,1006.83
2017-12-13T03:42:22.123Z,1006.84
2017-12-13T03:43:22.083Z,1006.79
2017-12-13T03:44:22.051Z,1006.69
2017-12-13T03:45:22.016Z,1006.72
2017-12-13T03:46:21.987Z,1006.74
2017-12-13T03:47:21.950Z,1006.60
2017-12-13T03:48:21.923Z,1006.77
2017-12-13T03:49:21.885Z,1006.71
2017-12-13T03:50:21.854Z,1006.69
2017-12-13T03:51:21.824Z,1006.65
2017-12-13T03:52:21.794Z,1006.66
2017-12-13T03:53:21.752Z,1006.61
2017-12-13T03:54:22.069Z,1006.67
2017-12-13T03:55:21.691Z,1006.70
2017-12-13T03:56:21.658Z,1006.65
2017-12-13T03:57:21.618Z,1006.71
2017-12-13T03:58:21.585Z,1006.63
2017-12-13T03:59:21.556Z,1006.68
2017-12-13T04:00:21.516Z,1006.64
2017-12-13T04:01:21.484Z,1006.71
2017-12-13T04:02:21.458Z,1006.71
2017-12-13T04:03:21.420Z,1006.68
2017-12-13T04:04:21.381Z,1006.71
2017-12-13T04:05:21.350Z,1006.58
2017-12-13T04:06:21.322Z,1006.66
2017-12-13T04:07:21.299Z,1006.71
2017-12-13T04:08:21.252Z,1006.67
2017-12-13T04:09:21.219Z,1006.61
2017-12-13T04:10:21.193Z,1006.74
2017-12-13T04:11:21.153Z,1006.67
2017-12-13T04:12:21.129Z,1006.53
2017-12-13T04:13:21.097Z,1006.64
2017-12-13T04:56:05.668Z,1006.19
2017-12-13T04:56:46.422Z,1006.12
2017-12-13T04:57:46.384Z,1006.03
2017-12-13T04:58:46.709Z,1006.20
2017-12-13T04:59:46.317Z,1006.15
2017-12-13T05:00:46.296Z,1006.16
2017-12-13T05:01:46.269Z,1006.16
2017-12-13T05:02:46.225Z,1006.22
2017-12-13T05:03:46.185Z,1006.15
2017-12-13T05:04:46.164Z,1006.12
2017-12-13T05:17:05.325Z,1005.85
2017-12-13T05:17:55.880Z,1005.85
2017-12-13T05:18:55.843Z,1005.88
2017-12-13T05:19:55.817Z,1005.91
2017-12-13T05:20:55.778Z,1005.94
2017-12-13T05:21:55.759Z,1005.76
2017-12-13T05:22:55.972Z,1005.80
2017-12-13T05:23:55.686Z,1005.70
2017-12-13T05:24:55.644Z,1005.71
2017-12-13T05:25:55.626Z,1005.72
2017-12-13T05:26:55.594Z,1005.82
2017-12-13T05:27:55.553Z,1005.74
2017-12-13T05:28:55.819Z,1005.87
2017-12-13T05:29:55.491Z,1005.83
2017-12-13T05:30:55.463Z,1005.81
2017-12-13T05:31:55.427Z,1005.77
2017-12-13T05:32:55.394Z,1005.79
2017-12-13T05:33:55.364Z,1005.78
2017-12-13T05:34:55.326Z,1005.72
2017-12-13T05:35:55.292Z,1005.79
2017-12-13T05:36:55.260Z,1005.77
2017-12-13T05:37:55.226Z,1005.73
2017-12-13T05:38:55.190Z,1005.64
2017-12-13T05:39:55.171Z,1005.73
2017-12-13T05:40:55.119Z,1005.69
2017-12-13T05:41:55.092Z,1005.67
2017-12-13T05:42:55.063Z,1005.56
2017-12-13T05:43:55.037Z,1005.61
2017-12-13T05:44:55.006Z,1005.61
2017-12-13T05:45:54.958Z,1005.65
2017-12-13T05:46:54.923Z,1005.56
2017-12-13T05:47:54.900Z,1005.63
2017-12-13T05:48:54.864Z,1005.59
2017-12-13T05:49:54.835Z,1005.56
2017-12-13T05:50:54.797Z,1005.55
2017-12-13T05:51:54.770Z,1005.60
2017-12-13T05:52:54.734Z,1005.50
2017-12-13T05:53:54.722Z,1005.39
2017-12-13T05:54:54.673Z,1005.42
2017-12-13T05:55:54.677Z,1005.41
2017-12-13T05:56:54.598Z,1005.36
2017-12-13T05:57:54.575Z,1005.34
2017-12-13T05:58:54.543Z,1005.29
2017-12-13T05:59:54.517Z,1005.36
2017-12-13T06:00:54.472Z,1005.37
2017-12-13T06:01:54.439Z,1005.32
2017-12-13T06:02:54.412Z,1005.35
2017-12-13T06:03:54.378Z,1005.20
2017-12-13T06:04:54.654Z,1005.13
2017-12-13T06:05:54.308Z,1005.23
2017-12-13T06:06:54.278Z,1005.31
2017-12-13T06:07:54.247Z,1005.16
2017-12-13T06:08:54.213Z,1005.20
2017-12-13T06:09:54.186Z,1005.20
2017-12-13T06:10:54.147Z,1005.20
2017-12-13T06:11:54.110Z,1005.27
2017-12-13T06:12:54.083Z,1005.20
2017-12-13T06:13:54.054Z,1004.94
2017-12-13T06:14:54.014Z,1005.11
2017-12-13T06:15:53.988Z,1005.07
2017-12-13T06:16:53.955Z,1005.14
2017-12-13T06:17:53.914Z,1005.14
2017-12-13T06:18:53.889Z,1004.83
2017-12-13T06:19:53.857Z,1004.85
2017-12-13T06:20:53.819Z,1004.98
2017-12-13T06:21:53.788Z,1005.04
2017-12-13T06:22:53.750Z,1005.01
2017-12-13T06:23:53.725Z,1005.09
2017-12-13T06:24:53.705Z,1005.12
2017-12-13T06:25:53.666Z,1005.09
2017-12-13T06:26:53.627Z,1005.10
2017-12-13T06:27:53.594Z,1005.10
2017-12-13T06:28:53.553Z,1005.12
2017-12-13T06:29:53.526Z,1005.04
2017-12-13T06:30:53.501Z,1005.06
2017-12-13T06:31:53.461Z,1005.05
2017-12-13T06:32:53.440Z,1004.93
2017-12-13T06:33:53.392Z,1004.94
2017-12-13T06:34:53.369Z,1004.99
2017-12-13T06:35:53.343Z,1004.98
2017-12-13T06:36:53.306Z,1004.87
2017-12-13T06:37:53.261Z,1004.89
2017-12-13T06:38:53.240Z,1004.89
2017-12-13T06:39:53.202Z,1004.86
2017-12-13T06:40:53.170Z,1004.85
2017-12-13T06:41:53.149Z,1004.78
2017-12-13T06:42:53.119Z,1004.82
2017-12-13T06:43:53.071Z,1004.70
2017-12-13T06:44:53.040Z,1004.82
2017-12-13T06:45:53.011Z,1004.79
2017-12-13T06:46:52.982Z,1004.73
2017-12-13T06:47:52.941Z,1004.72
2017-12-13T06:48:52.916Z,1004.79
2017-12-13T06:49:52.876Z,1004.68
2017-12-13T06:50:52.845Z,1004.66
2017-12-13T06:51:52.810Z,1004.68
2017-12-13T06:52:52.778Z,1004.64
2017-12-13T06:53:52.745Z,1004.45
2017-12-13T06:54:52.717Z,1004.52
2017-12-13T06:55:52.677Z,1004.63
2017-12-13T06:56:52.642Z,1004.54
2017-12-13T06:57:52.873Z,1004.55
2017-12-13T06:58:52.581Z,1004.60
2017-12-13T06:59:52.549Z,1004.59
2017-12-13T07:00:52.521Z,1004.52
2017-12-13T07:01:52.493Z,1004.37
2017-12-13T07:02:52.457Z,1004.35
2017-12-13T07:03:52.427Z,1004.37
2017-12-13T07:04:52.396Z,1004.36
2017-12-13T07:05:52.359Z,1004.40
2017-12-13T07:06:52.323Z,1004.45
2017-12-13T07:07:52.294Z,1004.38
2017-12-13T07:08:52.258Z,1004.35
2017-12-13T07:09:52.221Z,1004.39
2017-12-13T07:10:52.197Z,1004.26
2017-12-13T07:11:52.153Z,1004.45
2017-12-13T07:12:52.126Z,1004.32
2017-12-13T07:13:52.101Z,1004.43
2017-12-13T07:14:52.064Z,1004.28
2017-12-13T07:15:52.174Z,1004.40
2017-12-13T07:16:51.998Z,1004.28
2017-12-13T07:17:51.969Z,1004.35
2017-12-13T07:18:51.937Z,1004.38
2017-12-13T07:19:51.895Z,1004.30
2017-12-13T07:20:51.873Z,1004.21
2017-12-13T07:21:51.837Z,1004.23
2017-12-13T07:22:51.798Z,1004.31
2017-12-13T07:23:51.768Z,1004.28
2017-12-13T07:24:51.734Z,1004.31
2017-12-13T07:25:51.708Z,1004.17
2017-12-13T07:26:51.668Z,1004.10
2017-12-13T07:27:51.643Z,1004.14
2017-12-13T07:28:51.601Z,1004.13
2017-12-13T07:29:51.569Z,1004.13
2017-12-13T07:30:51.536Z,1004.05
2017-12-13T07:31:51.507Z,1004.05
2017-12-13T07:32:51.478Z,1004.00
2017-12-13T07:33:51.449Z,1003.98
2017-12-13T07:34:51.403Z,1004.02
2017-12-13T07:35:51.368Z,1003.98
2017-12-13T07:36:51.343Z,1003.97
2017-12-13T07:37:51.312Z,1003.98
2017-12-13T07:38:51.281Z,1003.98
2017-12-13T07:39:51.244Z,1004.01
2017-12-13T07:40:51.216Z,1003.92
2017-12-13T07:41:51.181Z,1004.07
2017-12-13T07:42:51.219Z,1003.88
2017-12-13T07:43:51.122Z,1003.63
2017-12-13T07:44:51.082Z,1003.75
2017-12-13T07:45:51.045Z,1003.78
2017-12-13T07:46:51.016Z,1003.82
2017-12-13T07:47:50.996Z,1003.80
2017-12-13T07:48:50.960Z,1003.74
2017-12-13T07:49:50.911Z,1003.59
2017-12-13T07:50:50.890Z,1003.74
2017-12-13T07:51:50.851Z,1003.60
2017-12-13T07:52:50.826Z,1003.72
2017-12-13T07:53:50.792Z,1003.69
2017-12-13T07:54:50.766Z,1003.68
2017-12-13T07:55:50.725Z,1003.64
2017-12-13T07:56:50.684Z,1003.58
2017-12-13T07:57:51.169Z,1003.52
2017-12-13T07:58:50.624Z,1003.57
2017-12-13T07:59:50.601Z,1003.60
2017-12-13T08:00:50.572Z,1003.42
2017-12-13T08:01:50.532Z,1003.32
2017-12-13T08:02:50.499Z,1003.20
2017-12-13T08:03:50.472Z,1003.35
2017-12-13T08:04:50.430Z,1003.29
2017-12-13T08:05:50.399Z,1003.40
2017-12-13T08:06:50.363Z,1003.29
2017-12-13T08:07:50.330Z,1003.21
2017-12-13T08:08:50.318Z,1003.34
2017-12-13T08:09:50.267Z,1003.20
2017-12-13T08:10:50.235Z,1003.23
2017-12-13T08:11:50.204Z,1003.35
2017-12-13T08:12:50.178Z,1003.16
2017-12-13T08:13:50.150Z,1003.22
2017-12-13T08:14:50.108Z,1003.23
2017-12-13T08:15:50.082Z,1003.21
2017-12-13T08:16:50.046Z,1003.17
2017-12-13T08:17:50.014Z,1003.08
2017-12-13T08:18:49.976Z,1003.17
2017-12-13T08:19:49.956Z,1003.24
2017-12-13T08:20:49.925Z,1003.00
2017-12-13T08:21:49.880Z,1003.20
2017-12-13T08:22:49.851Z,1003.17
2017-12-13T08:23:49.815Z,1003.16
2017-12-13T08:24:49.788Z,1003.19
2017-12-13T08:25:49.753Z,1003.14
2017-12-13T08:26:49.721Z,1003.22
2017-12-13T08:27:49.688Z,1002.88
2017-12-13T08:28:49.666Z,1003.09
2017-12-13T08:29:49.627Z,1003.15
2017-12-13T08:30:49.605Z,1003.10
2017-12-13T08:31:49.563Z,1003.08
2017-12-13T08:32:49.540Z,1003.00
2017-12-13T08:33:49.499Z,1003.10
2017-12-13T08:34:49.474Z,1003.00
2017-12-13T08:35:49.444Z,1002.88
2017-12-13T08:36:49.417Z,1003.03
2017-12-13T08:37:49.383Z,1002.89
2017-12-13T08:38:49.346Z,1003.08
2017-12-13T08:39:49.311Z,1003.10
2017-12-13T08:40:49.289Z,1002.95
2017-12-13T08:41:49.262Z,1002.96
2017-12-13T08:42:49.232Z,1002.92
2017-12-13T08:43:49.196Z,1002.98
2017-12-13T08:44:49.162Z,1002.98
2017-12-13T08:45:49.140Z,1002.79
2017-12-13T08:46:49.105Z,1002.91
2017-12-13T08:47:49.077Z,1002.73
2017-12-13T08:48:49.043Z,1002.84
2017-12-13T08:49:49.028Z,1002.61
2017-12-13T08:50:48.983Z,1002.68
2017-12-13T08:51:48.953Z,1002.41
2017-12-13T08:52:48.933Z,1002.71
2017-12-13T08:53:48.900Z,1002.55
2017-12-13T08:54:48.867Z,1002.61
2017-12-13T08:55:48.833Z,1002.55
2017-12-13T08:56:48.818Z,1002.64
2017-12-13T08:57:48.767Z,1002.62
2017-12-13T08:58:48.741Z,1002.60
2017-12-13T08:59:48.700Z,1002.53
2017-12-13T09:00:48.672Z,1002.58
2017-12-13T09:01:48.649Z,1002.56
2017-12-13T09:02:48.612Z,1002.54
2017-12-13T09:03:48.597Z,1002.49
2017-12-13T09:04:48.548Z,1002.58
2017-12-13T09:05:48.522Z,1002.38
2017-12-13T09:06:48.497Z,1002.46
2017-12-13T09:07:48.465Z,1002.53
2017-12-13T09:08:48.437Z,1002.37
2017-12-13T09:09:48.398Z,1002.40
2017-12-13T09:10:48.367Z,1002.22
2017-12-13T09:11:48.334Z,1002.30
2017-12-13T09:12:48.303Z,1002.27
2017-12-13T09:13:48.292Z,1002.37
2017-12-13T09:14:48.244Z,1002.38
2017-12-13T09:15:48.212Z,1002.06
2017-12-13T09:16:48.180Z,1002.39
2017-12-13T09:17:48.151Z,1002.22
2017-12-13T09:18:48.115Z,1002.13
2017-12-13T09:19:48.147Z,1001.94
2017-12-13T09:20:48.064Z,1002.20
2017-12-13T09:21:48.026Z,1002.36
2017-12-13T09:22:47.997Z,1002.15
2017-12-13T09:23:47.968Z,1001.91
2017-12-13T09:24:47.943Z,1002.34
2017-12-13T09:25:47.903Z,1002.03
2017-12-13T09:26:47.875Z,1002.27
2017-12-13T09:27:47.839Z,1001.90
2017-12-13T09:28:47.799Z,1001.96
2017-12-13T09:29:47.785Z,1002.18
2017-12-13T09:30:47.749Z,1002.14
2017-12-13T09:31:47.710Z,1002.07
2017-12-13T09:32:47.681Z,1001.77
2017-12-13T09:33:47.663Z,1001.89
2017-12-13T09:34:47.616Z,1002.05
2017-12-13T09:35:47.586Z,1001.91
2017-12-13T09:36:47.553Z,1002.03
2017-12-13T09:37:47.531Z,1002.10
2017-12-13T09:38:47.503Z,1001.84
2017-12-13T09:39:47.460Z,1001.81
2017-12-13T09:40:47.437Z,1001.59
2017-12-13T09:41:47.414Z,1001.69
2017-12-13T09:42:47.386Z,1001.96
2017-12-13T09:43:47.346Z,1001.87
2017-12-13T09:44:47.314Z,1001.45
2017-12-13T09:45:47.275Z,1001.37
2017-12-13T09:46:47.249Z,1001.41
2017-12-13T09:47:47.222Z,1001.04
2017-12-13T09:48:47.195Z,1001.45
2017-12-13T09:49:47.157Z,1001.53
2017-12-13T09:50:47.122Z,1001.27
2017-12-13T09:51:47.099Z,1001.31
2017-12-13T09:52:47.067Z,1001.04
2017-12-13T09:53:47.044Z,1001.37
2017-12-13T09:54:47.010Z,1001.33
2017-12-13T09:55:46.980Z,1001.20
2017-12-13T09:56:46.938Z,1001.47
2017-12-13T09:57:46.915Z,1001.00
2017-12-13T09:58:46.901Z,1000.91
2017-12-13T09:59:46.851Z,1001.15
2017-12-13T10:00:46.827Z,1001.29
2017-12-13T10:01:46.794Z,1000.91
2017-12-13T10:02:46.766Z,1001.41
2017-12-13T10:03:46.736Z,1001.27
2017-12-13T10:04:46.704Z,1001.15
2017-12-13T10:05:46.670Z,1001.05
2017-12-13T10:06:46.637Z,1001.10
2017-12-13T10:07:46.610Z,1001.05
2017-12-13T10:08:46.584Z,1001.27
2017-12-13T10:09:46.556Z,1001.18
2017-12-13T10:10:46.564Z,1000.95
2017-12-13T10:11:46.482Z,1001.14
2017-12-13T10:12:46.453Z,1001.12
2017-12-13T10:13:46.423Z,1000.96
2017-12-13T10:14:46.395Z,1000.90
2017-12-13T10:15:46.370Z,1000.68
2017-12-13T10:16:46.342Z,1000.75
2017-12-13T10:17:46.305Z,1000.82
2017-12-13T10:18:46.275Z,1000.93
2017-12-13T10:19:46.253Z,1000.78
2017-12-13T10:20:46.224Z,1000.75
2017-12-13T10:21:46.187Z,1000.77
2017-12-13T10:22:46.154Z,1000.84
2017-12-13T10:23:46.119Z,1000.74
2017-12-13T10:24:46.093Z,1000.57
2017-12-13T10:25:46.063Z,1000.63
2017-12-13T10:26:46.027Z,1000.42
2017-12-13T10:27:45.998Z,1000.35
2017-12-13T10:28:45.965Z,1000.63
2017-12-13T10:29:45.941Z,1000.31
2017-12-13T10:30:45.910Z,1000.36
2017-12-13T10:31:45.888Z,1000.47
2017-12-13T10:32:46.142Z,1000.55
2017-12-13T10:33:45.822Z,1000.54
2017-12-13T10:34:45.781Z,999.99
2017-12-13T10:35:45.765Z,1000.37
2017-12-13T10:36:45.727Z,1000.54
2017-12-13T10:37:45.693Z,1000.36
2017-12-13T10:38:45.660Z,999.97
2017-12-13T10:39:45.629Z,1000.15
2017-12-13T10:40:45.593Z,1000.27
2017-12-13T10:41:45.571Z,1000.03
2017-12-13T10:42:45.543Z,1000.12
2017-12-13T10:43:45.503Z,999.91
2017-12-13T10:44:45.470Z,1000.20
2017-12-13T10:45:45.454Z,999.61
2017-12-13T10:46:45.434Z,1000.09
2017-12-13T10:47:45.385Z,1000.07
2017-12-13T10:48:45.355Z,1000.14
2017-12-13T10:49:45.334Z,1000.05
2017-12-13T10:50:45.304Z,999.96
2017-12-13T10:51:45.273Z,999.74
2017-12-13T10:52:45.241Z,999.97
2017-12-13T10:53:45.206Z,999.69
2017-12-13T10:54:45.173Z,999.69
2017-12-13T10:55:45.138Z,999.84
2017-12-13T10:56:45.101Z,999.92
2017-12-13T10:57:45.083Z,999.77
2017-12-13T10:58:45.064Z,999.56
2017-12-13T10:59:45.010Z,999.72
2017-12-13T11:00:44.979Z,999.61
2017-12-13T11:01:44.961Z,999.57
2017-12-13T11:02:44.928Z,999.77
2017-12-13T11:03:44.895Z,999.81
2017-12-13T11:04:44.880Z,999.54
2017-12-13T11:05:44.829Z,999.58
2017-12-13T11:06:44.803Z,999.57
2017-12-13T11:07:44.774Z,999.51
2017-12-13T11:08:44.748Z,999.13
2017-12-13T11:09:44.720Z,999.36
2017-12-13T11:10:44.686Z,999.27
2017-12-13T11:11:44.648Z,999.12
2017-12-13T11:12:44.619Z,999.29
2017-12-13T11:13:44.597Z,999.35
2017-12-13T11:14:44.556Z,999.28
2017-12-13T11:15:44.530Z,999.14
2017-12-13T11:16:44.496Z,999.25
2017-12-13T11:17:44.470Z,999.22
2017-12-13T11:18:44.442Z,999.10
2017-12-13T11:19:44.412Z,998.82
2017-12-13T11:20:44.372Z,999.10
2017-12-13T11:21:44.338Z,999.01
2017-12-13T11:22:44.315Z,998.83
2017-12-13T11:23:44.281Z,998.96
2017-12-13T11:24:44.257Z,998.97
2017-12-13T11:25:44.218Z,998.96
2017-12-13T11:26:44.190Z,998.75
2017-12-13T11:27:44.156Z,998.86
2017-12-13T11:28:44.146Z,998.78
2017-12-13T11:29:44.109Z,998.83
2017-12-13T11:30:44.068Z,998.85
2017-12-13T11:31:44.046Z,998.66
2017-12-13T11:32:44.005Z,998.58
2017-12-13T11:33:43.987Z,998.64
2017-12-13T11:34:43.951Z,998.47
2017-12-13T11:35:43.919Z,998.45
2017-12-13T11:36:43.882Z,998.39
2017-12-13T11:37:43.855Z,998.29
2017-12-13T11:38:43.826Z,998.20
2017-12-13T11:39:43.794Z,998.29
2017-12-13T11:40:43.772Z,998.35
2017-12-13T11:41:43.738Z,998.37
2017-12-13T11:42:43.711Z,998.35
2017-12-13T11:43:43.675Z,998.21
2017-12-13T11:44:43.642Z,998.11
2017-12-13T11:45:43.608Z,998.13
2017-12-13T11:46:43.577Z,998.11
2017-12-13T11:47:43.556Z,998.17
2017-12-13T11:48:43.516Z,997.74
2017-12-13T11:49:43.490Z,997.98
2017-12-13T11:50:43.458Z,997.92
2017-12-13T11:51:43.418Z,997.92
2017-12-13T11:52:43.391Z,997.84
2017-12-13T11:53:43.358Z,997.77
2017-12-13T11:54:43.331Z,997.82
2017-12-13T11:55:43.304Z,997.72
2017-12-13T11:56:43.259Z,997.62
2017-12-13T11:57:43.242Z,997.61
2017-12-13T11:58:43.200Z,997.55
2017-12-13T11:59:43.177Z,997.60
2017-12-13T12:00:43.146Z,997.54
2017-12-13T12:01:43.454Z,997.62
2017-12-13T12:02:43.070Z,997.29
2017-12-13T12:03:43.052Z,997.41
2017-12-13T12:04:43.013Z,997.52
2017-12-13T12:05:42.976Z,997.35
2017-12-13T12:06:42.940Z,997.45
2017-12-13T12:07:42.915Z,997.32
2017-12-13T12:08:42.881Z,997.16
2017-12-13T12:09:42.847Z,997.15
2017-12-13T12:10:42.816Z,997.17
2017-12-13T12:11:42.779Z,997.07
2017-12-13T12:12:42.756Z,997.12
2017-12-13T12:13:42.718Z,996.90
2017-12-13T12:14:42.699Z,997.12
2017-12-13T12:15:42.656Z,997.02
2017-12-13T12:16:42.636Z,997.12
2017-12-13T12:17:42.596Z,997.12
2017-12-13T12:18:42.557Z,996.95
2017-12-13T12:19:42.528Z,997.01
2017-12-13T12:20:42.501Z,996.83
2017-12-13T12:21:42.483Z,996.84
2017-12-13T12:22:42.441Z,996.91
2017-12-13T12:23:42.396Z,996.82
2017-12-13T12:24:42.367Z,996.89
2017-12-13T12:25:42.338Z,996.79
2017-12-13T12:26:42.319Z,996.80
2017-12-13T12:27:42.274Z,996.65
2017-12-13T12:28:42.244Z,996.41
2017-12-13T12:29:42.213Z,996.64
2017-12-13T12:30:42.178Z,996.46
2017-12-13T12:31:42.504Z,996.57
2017-12-13T12:32:42.125Z,996.50
2017-12-13T12:33:42.089Z,996.59
2017-12-13T12:34:42.061Z,996.23
2017-12-13T12:35:42.025Z,996.52
2017-12-13T12:36:41.991Z,996.16
2017-12-13T12:37:42.200Z,996.25
2017-12-13T12:38:41.922Z,996.23
2017-12-13T12:39:41.886Z,996.30
2017-12-13T12:40:41.886Z,996.41
2017-12-13T12:41:41.829Z,996.26
2017-12-13T12:42:41.807Z,996.05
2017-12-13T12:43:41.769Z,996.27
2017-12-13T12:44:41.737Z,996.15
2017-12-13T12:45:41.714Z,996.11
2017-12-13T12:46:41.687Z,996.10
2017-12-13T12:47:41.637Z,996.21
2017-12-13T12:48:41.605Z,996.05
2017-12-13T12:49:41.577Z,995.92
2017-12-13T12:50:41.544Z,995.89
2017-12-13T12:51:41.516Z,996.04
2017-12-13T12:52:41.478Z,995.97
2017-12-13T12:53:41.441Z,995.93
2017-12-13T12:54:41.427Z,995.72
2017-12-13T12:55:41.380Z,995.76
2017-12-13T12:56:41.363Z,995.65
2017-12-13T12:57:41.330Z,995.68
2017-12-13T12:58:41.292Z,995.78
2017-12-13T12:59:41.258Z,995.81
2017-12-13T13:00:41.227Z,995.73
2017-12-13T13:01:41.191Z,995.67